Airfield :







YOU CAN JOIN US ON...

 
LOGIN :

Register | Disclaimer

   EN    FR    IT 

 









Legend :    VFR   Marginal VFR   IFR   Intensive IFR   Very Intensive IFR
Visi :
Ceiling :
>= 8 km
>= 3000ft
5 to 8 km
1000 to 3000 ft
1500m to 5 km
500 to 1000 ft
800 to 1500m
200 to 500 ft
< 800m
< 200 ft
Symbols :   Thunderstorms  Fog  Heavy snow  Heavy precipitations  Wind > 20 kt






- Airport Elevation : 522 ft
- IATA code : YBG


CYBG - CFB Bagotville

CURRENT METAR :
  • 021700Z 30007KT 25SM SCT065 23/10 A2967 RMK CU3 SLP049

EXPIRED METARs :
  • 021600Z 31007KT 25SM FEW040 22/11 A2969 RMK CU1 SLP053
  • 021500Z 28006KT 25SM FEW040 21/12 A2970 RMK SC1 SLP059

TAF TAF CYBG
Valid from the 02 at 15:00 until the 03 at 12:00 UTC


021440Z 0215/0312 28010G20KT P6SM FEW030 SCT090
FM021800 28015G25KT P6SM BKN050
TEMPO 0218/0223 P6SM -SHRA BKN030 OVC050
BECMG 0301/0303 28008KT
FM030800 VRB03KT P6SM SKC RMK NXT FCST BY 021800Z
CZUL FIR / North America



MET'MAP, your aeronautical weather chart ! - Copyright ORBIFLY December 2007 - Disclaimer

ORBIFLY MET'MAP TEAM :

Programming & Development : Alexandra Zaïnal
Original concept : Baudouin d'Aumeries
Technical & hardware support : Manuel Goepfert
Assistance : Marc-Olivier Méhu




SOURCES & CREDITS :

   NOAA